sensor_id;sensor_type;location;lat;lon;timestamp;temperature;humidity
16178;DHT22;8195;51.220;9.746;2023-02-07T00:11:55;-0.40;97.20
16178;DHT22;8195;51.220;9.746;2023-02-07T00:32:16;-0.70;97.20
16178;DHT22;8195;51.220;9.746;2023-02-07T02:48:02;-2.10;97.20
16178;DHT22;8195;51.220;9.746;2023-02-07T02:58:25;-2.10;97.20
16178;DHT22;8195;51.220;9.746;2023-02-07T03:08:45;-2.20;97.20
16178;DHT22;8195;51.220;9.746;2023-02-07T03:18:56;-2.30;97.20
16178;DHT22;8195;51.220;9.746;2023-02-07T03:29:00;-2.50;97.20
16178;DHT22;8195;51.220;9.746;2023-02-07T03:39:02;-2.60;97.20
16178;DHT22;8195;51.220;9.746;2023-02-07T03:49:03;-2.60;97.20
16178;DHT22;8195;51.220;9.746;2023-02-07T03:59:04;-2.80;97.20
16178;DHT22;8195;51.220;9.746;2023-02-07T04:09:05;-2.90;97.20
16178;DHT22;8195;51.220;9.746;2023-02-07T04:19:06;-3.00;97.20
16178;DHT22;8195;51.220;9.746;2023-02-07T04:29:06;-3.10;97.20
16178;DHT22;8195;51.220;9.746;2023-02-07T04:39:07;-3.20;97.20
16178;DHT22;8195;51.220;9.746;2023-02-07T04:49:07;-3.20;97.20
16178;DHT22;8195;51.220;9.746;2023-02-07T04:59:08;-3.30;97.20
16178;DHT22;8195;51.220;9.746;2023-02-07T05:09:09;-3.30;97.20
16178;DHT22;8195;51.220;9.746;2023-02-07T05:19:09;-3.40;97.20
16178;DHT22;8195;51.220;9.746;2023-02-07T05:29:10;-3.50;97.20
16178;DHT22;8195;51.220;9.746;2023-02-07T05:39:10;-3.50;97.20
16178;DHT22;8195;51.220;9.746;2023-02-07T05:49:11;-3.50;97.20
16178;DHT22;8195;51.220;9.746;2023-02-07T05:59:11;-3.50;97.20
16178;DHT22;8195;51.220;9.746;2023-02-07T06:09:12;-3.50;97.20
16178;DHT22;8195;51.220;9.746;2023-02-07T06:19:13;-3.70;97.20
16178;DHT22;8195;51.220;9.746;2023-02-07T06:29:13;-3.80;97.20
16178;DHT22;8195;51.220;9.746;2023-02-07T06:39:14;-3.80;97.20
16178;DHT22;8195;51.220;9.746;2023-02-07T06:49:14;-3.80;97.20
16178;DHT22;8195;51.220;9.746;2023-02-07T06:59:15;-3.80;97.20
16178;DHT22;8195;51.220;9.746;2023-02-07T07:09:15;-3.90;97.20
16178;DHT22;8195;51.220;9.746;2023-02-07T07:19:16;-4.00;97.20
16178;DHT22;8195;51.220;9.746;2023-02-07T07:29:18;-3.90;97.20
16178;DHT22;8195;51.220;9.746;2023-02-07T07:39:18;-3.50;97.20
16178;DHT22;8195;51.220;9.746;2023-02-07T07:49:19;-3.20;97.20
16178;DHT22;8195;51.220;9.746;2023-02-07T07:59:20;-2.90;97.20
16178;DHT22;8195;51.220;9.746;2023-02-07T08:09:20;-2.50;97.20
16178;DHT22;8195;51.220;9.746;2023-02-07T08:19:21;-2.70;97.20
16178;DHT22;8195;51.220;9.746;2023-02-07T08:29:21;-2.70;97.20
16178;DHT22;8195;51.220;9.746;2023-02-07T08:39:22;-2.30;97.20
16178;DHT22;8195;51.220;9.746;2023-02-07T08:49:22;-2.00;97.20
16178;DHT22;8195;51.220;9.746;2023-02-07T08:59:23;-1.00;97.20
16178;DHT22;8195;51.220;9.746;2023-02-07T09:09:24;2.00;97.20
16178;DHT22;8195;51.220;9.746;2023-02-07T09:19:34;2.90;97.20
16178;DHT22;8195;51.220;9.746;2023-02-07T09:29:41;5.40;97.20
16178;DHT22;8195;51.220;9.746;2023-02-07T09:39:43;7.90;97.20
16178;DHT22;8195;51.220;9.746;2023-02-07T09:50:12;9.10;97.20
16178;DHT22;8195;51.220;9.746;2023-02-07T10:00:35;9.90;97.20
16178;DHT22;8195;51.220;9.746;2023-02-07T10:21:31;10.80;97.20
16178;DHT22;8195;51.220;9.746;2023-02-07T10:31:40;9.80;97.20
16178;DHT22;8195;51.220;9.746;2023-02-07T10:41:42;10.60;96.20
16178;DHT22;8195;51.220;9.746;2023-02-07T10:51:44;11.80;93.10
16178;DHT22;8195;51.220;9.746;2023-02-07T11:01:52;12.30;89.80
16178;DHT22;8195;51.220;9.746;2023-02-07T11:11:54;12.60;89.20
16178;DHT22;8195;51.220;9.746;2023-02-07T11:22:17;12.80;85.80
16178;DHT22;8195;51.220;9.746;2023-02-07T11:32:20;12.70;84.70
16178;DHT22;8195;51.220;9.746;2023-02-07T11:42:24;10.70;86.20
16178;DHT22;8195;51.220;9.746;2023-02-07T11:52:25;9.20;89.50
16178;DHT22;8195;51.220;9.746;2023-02-07T12:02:28;8.10;93.20
16178;DHT22;8195;51.220;9.746;2023-02-07T12:12:38;7.10;94.90
16178;DHT22;8195;51.220;9.746;2023-02-07T12:22:49;6.30;96.20
16178;DHT22;8195;51.220;9.746;2023-02-07T12:32:59;5.80;96.70
16178;DHT22;8195;51.220;9.746;2023-02-07T12:43:10;5.20;95.20
16178;DHT22;8195;51.220;9.746;2023-02-07T12:53:48;4.50;95.30
16178;DHT22;8195;51.220;9.746;2023-02-07T13:03:52;4.20;95.20
16178;DHT22;8195;51.220;9.746;2023-02-07T13:14:10;4.10;95.60
16178;DHT22;8195;51.220;9.746;2023-02-07T13:24:16;3.80;97.00
16178;DHT22;8195;51.220;9.746;2023-02-07T13:34:20;3.80;97.20
16178;DHT22;8195;51.220;9.746;2023-02-07T14:04:57;3.40;97.20
16178;DHT22;8195;51.220;9.746;2023-02-07T14:55:53;2.60;97.20
16178;DHT22;8195;51.220;9.746;2023-02-07T15:06:03;2.60;97.20
16178;DHT22;8195;51.220;9.746;2023-02-07T15:26:17;2.40;97.20
16178;DHT22;8195;51.220;9.746;2023-02-07T15:36:42;2.20;97.20
16178;DHT22;8195;51.220;9.746;2023-02-07T15:46:53;2.00;97.20
16178;DHT22;8195;51.220;9.746;2023-02-07T15:56:58;1.80;97.20
16178;DHT22;8195;51.220;9.746;2023-02-07T16:07:06;1.80;97.20
16178;DHT22;8195;51.220;9.746;2023-02-07T16:17:21;1.60;97.20
16178;DHT22;8195;51.220;9.746;2023-02-07T16:27:23;1.40;97.20
16178;DHT22;8195;51.220;9.746;2023-02-07T16:37:25;1.10;97.20
16178;DHT22;8195;51.220;9.746;2023-02-07T16:47:25;0.90;97.20
16178;DHT22;8195;51.220;9.746;2023-02-07T16:57:26;0.70;97.20
16178;DHT22;8195;51.220;9.746;2023-02-07T17:07:27;0.50;97.20
16178;DHT22;8195;51.220;9.746;2023-02-07T17:17:27;0.30;97.20
16178;DHT22;8195;51.220;9.746;2023-02-07T17:27:28;0.10;97.20
16178;DHT22;8195;51.220;9.746;2023-02-07T17:37:28;0.00;97.20
16178;DHT22;8195;51.220;9.746;2023-02-07T17:47:29;-0.10;97.20
16178;DHT22;8195;51.220;9.746;2023-02-07T17:57:29;-0.20;97.20
16178;DHT22;8195;51.220;9.746;2023-02-07T18:07:30;-0.40;97.20
16178;DHT22;8195;51.220;9.746;2023-02-07T18:17:30;-0.50;97.20
16178;DHT22;8195;51.220;9.746;2023-02-07T18:27:33;-0.50;97.20
16178;DHT22;8195;51.220;9.746;2023-02-07T18:37:33;-0.50;97.20
16178;DHT22;8195;51.220;9.746;2023-02-07T18:47:34;-0.40;97.20
16178;DHT22;8195;51.220;9.746;2023-02-07T18:57:35;-0.40;97.20
16178;DHT22;8195;51.220;9.746;2023-02-07T19:07:35;-0.50;97.20
16178;DHT22;8195;51.220;9.746;2023-02-07T19:17:36;-0.50;97.20
16178;DHT22;8195;51.220;9.746;2023-02-07T19:27:36;-0.60;97.20
16178;DHT22;8195;51.220;9.746;2023-02-07T19:37:37;-0.60;97.20
16178;DHT22;8195;51.220;9.746;2023-02-07T19:47:37;-0.60;97.20
16178;DHT22;8195;51.220;9.746;2023-02-07T19:57:38;-0.70;97.20
16178;DHT22;8195;51.220;9.746;2023-02-07T20:07:38;-1.00;97.20
16178;DHT22;8195;51.220;9.746;2023-02-07T20:17:39;-1.20;97.20
16178;DHT22;8195;51.220;9.746;2023-02-07T20:27:39;-1.30;97.20
16178;DHT22;8195;51.220;9.746;2023-02-07T20:37:40;-1.20;97.20
16178;DHT22;8195;51.220;9.746;2023-02-07T20:47:40;-1.10;97.20
16178;DHT22;8195;51.220;9.746;2023-02-07T20:57:41;-1.00;97.20
16178;DHT22;8195;51.220;9.746;2023-02-07T21:07:42;-1.00;97.20
16178;DHT22;8195;51.220;9.746;2023-02-07T21:17:42;-1.10;97.20
16178;DHT22;8195;51.220;9.746;2023-02-07T21:27:43;-1.10;97.20
16178;DHT22;8195;51.220;9.746;2023-02-07T21:37:43;-1.30;97.20
16178;DHT22;8195;51.220;9.746;2023-02-07T21:47:44;-1.40;97.20
16178;DHT22;8195;51.220;9.746;2023-02-07T21:57:45;-1.60;97.20
16178;DHT22;8195;51.220;9.746;2023-02-07T22:07:45;-1.90;97.20
16178;DHT22;8195;51.220;9.746;2023-02-07T22:17:46;-1.80;97.20
16178;DHT22;8195;51.220;9.746;2023-02-07T22:27:46;-1.80;97.20
16178;DHT22;8195;51.220;9.746;2023-02-07T22:37:47;-1.90;97.20
16178;DHT22;8195;51.220;9.746;2023-02-07T22:47:47;-1.70;97.20
16178;DHT22;8195;51.220;9.746;2023-02-07T22:57:48;-2.00;97.20
16178;DHT22;8195;51.220;9.746;2023-02-07T23:07:50;-1.90;97.20
16178;DHT22;8195;51.220;9.746;2023-02-07T23:17:51;-1.90;97.20
16178;DHT22;8195;51.220;9.746;2023-02-07T23:27:51;-1.90;97.20
16178;DHT22;8195;51.220;9.746;2023-02-07T23:37:52;-1.80;97.20
16178;DHT22;8195;51.220;9.746;2023-02-07T23:47:52;-1.60;97.20
16178;DHT22;8195;51.220;9.746;2023-02-07T23:57:53;-1.40;97.20
